Terminal Aerodrome Forecast
Issued by NWS Sioux Falls, SD

Home | Current Version | Previous Version | Text Only | Print | Product List | Glossary Off
Versions: 1 2 3 4 5 6 7 8 9 10 11 12 13 14 15 16 17 18 19 20 21 22 23 24 25 26 27 28

008
FTUS43 KFSD 211132
TAFSUX
TAF
KSUX 211132Z 2112/2212 13008KT P6SM SCT200
     FM211700 16012KT P6SM SCT250
     FM212100 19014KT P6SM SCT150
     FM220200 17009KT P6SM VCTS BKN080CB
     FM220500 18005KT P6SM SCT200=

USA.gov is the U.S. government's official web portal to all federal, state and local government web resources and services.